sensor_id;sensor_type;location;lat;lon;timestamp;pressure;altitude;pressure_sealevel;temperature;humidity
42887;BME280;29032;56.028;92.904;2022-10-23T00:00:05;98087.41;;;11.87;43.87
42887;BME280;29032;56.028;92.904;2022-10-23T00:05:10;98086.63;;;11.87;43.50
42887;BME280;29032;56.028;92.904;2022-10-23T00:10:12;98091.22;;;11.92;42.42
42887;BME280;29032;56.028;92.904;2022-10-23T00:15:16;98093.09;;;12.06;42.55
42887;BME280;29032;56.028;92.904;2022-10-23T00:20:20;98084.69;;;12.24;42.04
42887;BME280;29032;56.028;92.904;2022-10-23T00:25:22;98086.47;;;12.29;42.17
42887;BME280;29032;56.028;92.904;2022-10-23T00:30:24;98059.63;;;12.33;41.72
42887;BME280;29032;56.028;92.904;2022-10-23T00:35:28;98071.84;;;12.38;41.76
42887;BME280;29032;56.028;92.904;2022-10-23T00:40:30;98081.69;;;12.39;41.72
42887;BME280;29032;56.028;92.904;2022-10-23T00:45:33;98086.81;;;12.43;41.81
42887;BME280;29032;56.028;92.904;2022-10-23T00:50:37;98096.25;;;12.47;41.74
42887;BME280;29032;56.028;92.904;2022-10-23T00:55:41;98097.44;;;12.44;44.19
42887;BME280;29032;56.028;92.904;2022-10-23T01:00:45;98104.88;;;12.42;44.30
42887;BME280;29032;56.028;92.904;2022-10-23T01:05:54;98076.56;;;12.45;43.06
42887;BME280;29032;56.028;92.904;2022-10-23T01:11:03;98082.16;;;12.45;43.61
42887;BME280;29032;56.028;92.904;2022-10-23T01:16:13;98076.56;;;12.45;44.20
42887;BME280;29032;56.028;92.904;2022-10-23T01:21:22;98069.41;;;12.52;44.57
42887;BME280;29032;56.028;92.904;2022-10-23T01:26:53;98051.22;;;12.60;43.93
42887;BME280;29032;56.028;92.904;2022-10-23T01:32:03;98047.63;;;12.50;43.56
42887;BME280;29032;56.028;92.904;2022-10-23T01:37:11;98025.47;;;12.52;43.84
42887;BME280;29032;56.028;92.904;2022-10-23T01:42:20;98022.50;;;12.50;43.63
42887;BME280;29032;56.028;92.904;2022-10-23T01:47:29;98021.03;;;12.49;43.84
42887;BME280;29032;56.028;92.904;2022-10-23T01:52:37;98005.16;;;12.42;44.49
42887;BME280;29032;56.028;92.904;2022-10-23T01:57:42;98040.44;;;12.47;44.29
42887;BME280;29032;56.028;92.904;2022-10-23T02:02:49;98035.16;;;12.51;43.54
42887;BME280;29032;56.028;92.904;2022-10-23T02:07:53;98025.28;;;12.50;43.58
42887;BME280;29032;56.028;92.904;2022-10-23T02:13:02;98027.22;;;12.57;44.44
42887;BME280;29032;56.028;92.904;2022-10-23T02:18:14;98016.25;;;12.59;44.64
42887;BME280;29032;56.028;92.904;2022-10-23T02:23:29;97995.22;;;12.58;45.33
42887;BME280;29032;56.028;92.904;2022-10-23T02:28:38;97944.53;;;12.52;47.65
42887;BME280;29032;56.028;92.904;2022-10-23T02:33:43;97953.75;;;12.45;47.95
42887;BME280;29032;56.028;92.904;2022-10-23T02:38:47;97953.44;;;12.41;48.25
42887;BME280;29032;56.028;92.904;2022-10-23T02:43:56;97930.09;;;12.46;48.02
42887;BME280;29032;56.028;92.904;2022-10-23T02:49:10;97919.94;;;12.41;47.70
42887;BME280;29032;56.028;92.904;2022-10-23T02:54:19;97934.06;;;12.43;48.85
42887;BME280;29032;56.028;92.904;2022-10-23T02:59:34;97928.06;;;12.47;48.11
42887;BME280;29032;56.028;92.904;2022-10-23T03:04:42;97937.00;;;12.45;46.88
42887;BME280;29032;56.028;92.904;2022-10-23T03:09:45;97914.22;;;12.39;47.88
42887;BME280;29032;56.028;92.904;2022-10-23T03:14:48;97876.34;;;12.46;47.84
42887;BME280;29032;56.028;92.904;2022-10-23T03:19:52;97820.53;;;12.55;48.13
42887;BME280;29032;56.028;92.904;2022-10-23T03:24:54;97817.19;;;12.67;46.15
42887;BME280;29032;56.028;92.904;2022-10-23T03:29:56;97816.44;;;12.66;46.56
42887;BME280;29032;56.028;92.904;2022-10-23T03:35:00;97817.75;;;12.75;45.12
42887;BME280;29032;56.028;92.904;2022-10-23T03:40:03;97812.59;;;12.71;45.69
42887;BME280;29032;56.028;92.904;2022-10-23T03:45:08;97798.91;;;13.04;45.75
42887;BME280;29032;56.028;92.904;2022-10-23T03:50:12;97795.22;;;12.92;44.98
42887;BME280;29032;56.028;92.904;2022-10-23T03:55:14;97776.84;;;12.99;45.66
42887;BME280;29032;56.028;92.904;2022-10-23T04:00:17;97782.69;;;13.12;44.66
42887;BME280;29032;56.028;92.904;2022-10-23T04:05:20;97776.75;;;13.28;44.85
42887;BME280;29032;56.028;92.904;2022-10-23T04:10:30;97758.94;;;13.33;47.05
42887;BME280;29032;56.028;92.904;2022-10-23T04:15:32;97738.03;;;13.43;45.96
42887;BME280;29032;56.028;92.904;2022-10-23T04:20:38;97738.25;;;13.57;40.12
42887;BME280;29032;56.028;92.904;2022-10-23T04:25:40;97706.28;;;13.60;40.86
42887;BME280;29032;56.028;92.904;2022-10-23T04:30:43;97712.97;;;13.77;41.02
42887;BME280;29032;56.028;92.904;2022-10-23T04:35:48;97689.00;;;13.95;40.22
42887;BME280;29032;56.028;92.904;2022-10-23T04:40:51;97678.63;;;14.07;40.00
42887;BME280;29032;56.028;92.904;2022-10-23T04:45:57;97681.81;;;14.13;38.87
42887;BME280;29032;56.028;92.904;2022-10-23T04:51:04;97692.06;;;14.20;39.10
42887;BME280;29032;56.028;92.904;2022-10-23T04:56:27;97700.81;;;14.26;37.87
42887;BME280;29032;56.028;92.904;2022-10-23T05:01:42;97679.94;;;14.39;38.65
42887;BME280;29032;56.028;92.904;2022-10-23T05:06:46;97680.81;;;14.42;38.44
42887;BME280;29032;56.028;92.904;2022-10-23T05:12:11;97682.63;;;14.37;38.37
42887;BME280;29032;56.028;92.904;2022-10-23T05:17:16;97685.31;;;14.47;37.13
42887;BME280;29032;56.028;92.904;2022-10-23T05:22:20;97672.66;;;14.46;36.57
42887;BME280;29032;56.028;92.904;2022-10-23T05:27:27;97674.94;;;14.38;36.22
42887;BME280;29032;56.028;92.904;2022-10-23T05:32:31;97682.16;;;14.41;35.83
42887;BME280;29032;56.028;92.904;2022-10-23T05:37:36;97661.47;;;14.46;36.15
42887;BME280;29032;56.028;92.904;2022-10-23T05:42:46;97653.06;;;14.46;35.36
42887;BME280;29032;56.028;92.904;2022-10-23T05:47:51;97656.25;;;14.52;35.62
42887;BME280;29032;56.028;92.904;2022-10-23T05:53:24;97676.84;;;14.56;34.96
42887;BME280;29032;56.028;92.904;2022-10-23T05:58:38;97668.78;;;14.51;34.84
42887;BME280;29032;56.028;92.904;2022-10-23T06:03:51;97670.25;;;14.52;34.92
42887;BME280;29032;56.028;92.904;2022-10-23T06:08:57;97690.22;;;14.58;34.73
42887;BME280;29032;56.028;92.904;2022-10-23T06:14:00;97688.03;;;14.56;34.83
42887;BME280;29032;56.028;92.904;2022-10-23T06:19:02;97667.56;;;14.54;34.44
42887;BME280;29032;56.028;92.904;2022-10-23T06:24:06;97667.81;;;14.58;34.81
42887;BME280;29032;56.028;92.904;2022-10-23T06:29:19;97664.19;;;14.55;34.80
42887;BME280;29032;56.028;92.904;2022-10-23T06:34:22;97667.59;;;14.66;35.00
42887;BME280;29032;56.028;92.904;2022-10-23T06:39:27;97675.19;;;14.75;35.19
42887;BME280;29032;56.028;92.904;2022-10-23T06:44:47;97654.22;;;14.76;35.03
42887;BME280;29032;56.028;92.904;2022-10-23T06:50:00;97651.81;;;14.82;35.08
42887;BME280;29032;56.028;92.904;2022-10-23T06:55:05;97651.56;;;14.90;35.02
42887;BME280;29032;56.028;92.904;2022-10-23T07:00:12;97653.03;;;14.79;35.26
42887;BME280;29032;56.028;92.904;2022-10-23T07:05:23;97635.72;;;14.82;35.77
42887;BME280;29032;56.028;92.904;2022-10-23T07:10:27;97633.28;;;14.89;36.23
42887;BME280;29032;56.028;92.904;2022-10-23T07:15:32;97622.22;;;14.91;36.38
42887;BME280;29032;56.028;92.904;2022-10-23T07:20:35;97615.91;;;14.90;36.87
42887;BME280;29032;56.028;92.904;2022-10-23T07:25:38;97634.75;;;14.90;37.52
42887;BME280;29032;56.028;92.904;2022-10-23T07:30:41;97625.38;;;14.85;37.58
42887;BME280;29032;56.028;92.904;2022-10-23T07:35:46;97617.59;;;14.83;37.63
42887;BME280;29032;56.028;92.904;2022-10-23T07:41:00;97622.59;;;14.85;38.24
42887;BME280;29032;56.028;92.904;2022-10-23T07:46:03;97600.44;;;14.77;37.69
42887;BME280;29032;56.028;92.904;2022-10-23T07:51:12;97604.56;;;14.76;37.74
42887;BME280;29032;56.028;92.904;2022-10-23T07:56:23;97606.50;;;14.86;37.98
42887;BME280;29032;56.028;92.904;2022-10-23T08:01:48;97607.72;;;14.71;37.38
42887;BME280;29032;56.028;92.904;2022-10-23T08:06:51;97619.66;;;14.71;37.59
42887;BME280;29032;56.028;92.904;2022-10-23T08:11:55;97619.41;;;14.79;37.24
42887;BME280;29032;56.028;92.904;2022-10-23T08:16:59;97631.34;;;14.79;37.45
42887;BME280;29032;56.028;92.904;2022-10-23T08:22:20;97621.59;;;14.80;37.52
42887;BME280;29032;56.028;92.904;2022-10-23T08:27:24;97610.88;;;14.89;37.93
42887;BME280;29032;56.028;92.904;2022-10-23T08:32:29;97602.09;;;14.82;37.73
42887;BME280;29032;56.028;92.904;2022-10-23T08:37:34;97631.22;;;14.77;37.80
42887;BME280;29032;56.028;92.904;2022-10-23T08:42:38;97628.19;;;14.85;37.88
42887;BME280;29032;56.028;92.904;2022-10-23T08:47:45;97629.03;;;14.88;38.20
42887;BME280;29032;56.028;92.904;2022-10-23T08:53:00;97659.38;;;14.79;38.02
42887;BME280;29032;56.028;92.904;2022-10-23T08:58:06;97665.31;;;14.74;38.41
42887;BME280;29032;56.028;92.904;2022-10-23T09:03:12;97664.78;;;14.66;38.41
42887;BME280;29032;56.028;92.904;2022-10-23T09:08:24;97676.59;;;14.64;38.54
42887;BME280;29032;56.028;92.904;2022-10-23T09:13:44;97683.16;;;14.57;38.78
42887;BME280;29032;56.028;92.904;2022-10-23T09:18:49;97692.63;;;14.52;38.67
42887;BME280;29032;56.028;92.904;2022-10-23T09:23:51;97700.66;;;14.46;38.72
42887;BME280;29032;56.028;92.904;2022-10-23T09:29:05;97710.78;;;14.51;38.54
42887;BME280;29032;56.028;92.904;2022-10-23T09:34:18;97729.38;;;14.46;38.59
42887;BME280;29032;56.028;92.904;2022-10-23T09:39:23;97733.72;;;14.38;38.49
42887;BME280;29032;56.028;92.904;2022-10-23T09:44:28;97740.06;;;14.38;38.35
42887;BME280;29032;56.028;92.904;2022-10-23T09:49:31;97739.38;;;14.49;38.65
42887;BME280;29032;56.028;92.904;2022-10-23T09:54:36;97746.59;;;14.31;38.41
42887;BME280;29032;56.028;92.904;2022-10-23T09:59:41;97759.97;;;14.21;38.81
42887;BME280;29032;56.028;92.904;2022-10-23T10:04:43;97755.75;;;14.10;38.68
42887;BME280;29032;56.028;92.904;2022-10-23T10:09:46;97770.53;;;14.01;38.50
42887;BME280;29032;56.028;92.904;2022-10-23T10:14:57;97776.41;;;14.05;38.40
42887;BME280;29032;56.028;92.904;2022-10-23T10:25:36;97791.47;;;14.00;37.89
42887;BME280;29032;56.028;92.904;2022-10-23T10:30:46;97806.50;;;13.95;36.68
42887;BME280;29032;56.028;92.904;2022-10-23T10:35:54;97820.38;;;13.93;37.30
42887;BME280;29032;56.028;92.904;2022-10-23T10:41:19;97817.41;;;13.91;36.13
42887;BME280;29032;56.028;92.904;2022-10-23T10:46:29;97818.50;;;13.86;35.34
42887;BME280;29032;56.028;92.904;2022-10-23T10:51:39;97823.06;;;13.81;34.89
42887;BME280;29032;56.028;92.904;2022-10-23T10:56:47;97846.50;;;13.76;33.78
42887;BME280;29032;56.028;92.904;2022-10-23T11:01:55;97856.38;;;13.67;33.14
42887;BME280;29032;56.028;92.904;2022-10-23T11:07:04;97847.28;;;13.57;31.51
42887;BME280;29032;56.028;92.904;2022-10-23T11:12:14;97873.94;;;13.48;31.61
42887;BME280;29032;56.028;92.904;2022-10-23T11:17:23;97897.06;;;13.39;31.44
42887;BME280;29032;56.028;92.904;2022-10-23T11:22:32;97899.41;;;13.43;31.74
42887;BME280;29032;56.028;92.904;2022-10-23T11:27:47;97905.00;;;13.43;31.71
42887;BME280;29032;56.028;92.904;2022-10-23T11:33:34;97915.72;;;13.56;31.69
42887;BME280;29032;56.028;92.904;2022-10-23T11:38:44;97911.19;;;13.32;31.16
42887;BME280;29032;56.028;92.904;2022-10-23T11:43:50;97924.16;;;13.17;30.95
42887;BME280;29032;56.028;92.904;2022-10-23T11:48:55;97950.91;;;13.20;31.54
42887;BME280;29032;56.028;92.904;2022-10-23T11:54:19;97973.25;;;13.20;31.00
42887;BME280;29032;56.028;92.904;2022-10-23T11:59:26;97977.69;;;13.04;30.69
42887;BME280;29032;56.028;92.904;2022-10-23T12:04:38;97997.69;;;13.10;30.28
42887;BME280;29032;56.028;92.904;2022-10-23T12:09:44;97997.53;;;13.08;30.48
42887;BME280;29032;56.028;92.904;2022-10-23T12:14:48;98009.44;;;12.99;30.29
42887;BME280;29032;56.028;92.904;2022-10-23T12:19:54;98022.09;;;13.00;30.75
42887;BME280;29032;56.028;92.904;2022-10-23T12:24:59;98038.41;;;12.94;30.60
42887;BME280;29032;56.028;92.904;2022-10-23T12:30:16;98067.66;;;12.93;31.95
42887;BME280;29032;56.028;92.904;2022-10-23T12:35:32;98088.63;;;12.84;32.03
42887;BME280;29032;56.028;92.904;2022-10-23T12:40:39;98085.22;;;12.67;32.43
42887;BME280;29032;56.028;92.904;2022-10-23T12:45:42;98092.13;;;12.48;33.25
42887;BME280;29032;56.028;92.904;2022-10-23T12:50:49;98081.97;;;12.43;32.83
42887;BME280;29032;56.028;92.904;2022-10-23T12:55:55;98072.13;;;12.42;32.74
42887;BME280;29032;56.028;92.904;2022-10-23T13:00:59;98069.81;;;12.48;32.61
42887;BME280;29032;56.028;92.904;2022-10-23T13:06:03;98067.50;;;12.54;33.05
42887;BME280;29032;56.028;92.904;2022-10-23T13:11:06;98089.50;;;12.50;31.93
42887;BME280;29032;56.028;92.904;2022-10-23T13:16:14;98093.31;;;12.45;32.59
42887;BME280;29032;56.028;92.904;2022-10-23T13:21:20;98100.38;;;12.46;32.53
42887;BME280;29032;56.028;92.904;2022-10-23T13:26:28;98106.78;;;12.39;32.04
42887;BME280;29032;56.028;92.904;2022-10-23T13:31:32;98133.34;;;12.30;30.63
42887;BME280;29032;56.028;92.904;2022-10-23T13:36:36;98144.38;;;12.11;30.74
42887;BME280;29032;56.028;92.904;2022-10-23T13:41:41;98179.66;;;11.99;30.22
42887;BME280;29032;56.028;92.904;2022-10-23T13:46:44;98187.09;;;11.79;29.94
42887;BME280;29032;56.028;92.904;2022-10-23T13:51:50;98206.78;;;11.64;29.95
42887;BME280;29032;56.028;92.904;2022-10-23T13:56:53;98218.06;;;11.48;30.11
42887;BME280;29032;56.028;92.904;2022-10-23T14:01:55;98236.88;;;11.40;30.46
42887;BME280;29032;56.028;92.904;2022-10-23T14:06:59;98222.06;;;11.30;31.10
42887;BME280;29032;56.028;92.904;2022-10-23T14:12:01;98231.53;;;11.10;31.67
42887;BME280;29032;56.028;92.904;2022-10-23T14:17:03;98247.72;;;11.04;33.00
42887;BME280;29032;56.028;92.904;2022-10-23T14:22:07;98308.19;;;10.78;35.34
42887;BME280;29032;56.028;92.904;2022-10-23T14:27:09;98313.50;;;10.43;36.14
42887;BME280;29032;56.028;92.904;2022-10-23T14:32:11;98338.41;;;10.26;36.44
42887;BME280;29032;56.028;92.904;2022-10-23T14:37:15;98393.06;;;10.16;39.19
42887;BME280;29032;56.028;92.904;2022-10-23T14:42:17;98441.66;;;9.33;43.60
42887;BME280;29032;56.028;92.904;2022-10-23T14:47:19;98471.81;;;8.85;44.76
42887;BME280;29032;56.028;92.904;2022-10-23T14:52:23;98523.41;;;8.60;46.17
42887;BME280;29032;56.028;92.904;2022-10-23T14:57:25;98542.84;;;8.39;46.80
42887;BME280;29032;56.028;92.904;2022-10-23T15:02:27;98560.91;;;7.98;44.88
42887;BME280;29032;56.028;92.904;2022-10-23T15:07:31;98572.06;;;7.71;45.19
42887;BME280;29032;56.028;92.904;2022-10-23T15:12:34;98639.72;;;7.50;46.50
42887;BME280;29032;56.028;92.904;2022-10-23T15:17:36;98661.03;;;6.96;45.01
42887;BME280;29032;56.028;92.904;2022-10-23T15:22:39;98672.72;;;6.89;44.02
42887;BME280;29032;56.028;92.904;2022-10-23T15:27:41;98675.44;;;6.76;42.53
42887;BME280;29032;56.028;92.904;2022-10-23T15:32:44;98691.19;;;6.49;41.36
42887;BME280;29032;56.028;92.904;2022-10-23T15:37:47;98725.19;;;6.44;42.26
42887;BME280;29032;56.028;92.904;2022-10-23T15:42:49;98750.41;;;6.16;41.09
42887;BME280;29032;56.028;92.904;2022-10-23T15:47:52;98771.50;;;5.94;39.88
42887;BME280;29032;56.028;92.904;2022-10-23T15:52:55;98795.97;;;5.85;40.03
42887;BME280;29032;56.028;92.904;2022-10-23T15:57:57;98829.50;;;5.70;40.22
42887;BME280;29032;56.028;92.904;2022-10-23T16:02:59;98852.63;;;5.67;40.38
42887;BME280;29032;56.028;92.904;2022-10-23T16:08:03;98861.47;;;5.60;39.85
42887;BME280;29032;56.028;92.904;2022-10-23T16:13:07;98935.56;;;5.56;40.71
42887;BME280;29032;56.028;92.904;2022-10-23T16:18:09;98965.88;;;5.09;42.92
42887;BME280;29032;56.028;92.904;2022-10-23T16:23:13;98983.53;;;4.83;41.95
42887;BME280;29032;56.028;92.904;2022-10-23T16:28:15;98999.88;;;4.53;42.02
42887;BME280;29032;56.028;92.904;2022-10-23T16:33:17;99007.19;;;4.06;43.79
42887;BME280;29032;56.028;92.904;2022-10-23T16:38:21;99041.22;;;4.03;43.98
42887;BME280;29032;56.028;92.904;2022-10-23T16:43:23;99039.69;;;3.91;44.06
42887;BME280;29032;56.028;92.904;2022-10-23T16:48:56;99075.28;;;4.00;44.22
42887;BME280;29032;56.028;92.904;2022-10-23T16:53:59;99131.38;;;4.08;44.45
42887;BME280;29032;56.028;92.904;2022-10-23T16:59:02;99151.59;;;3.88;44.47
42887;BME280;29032;56.028;92.904;2022-10-23T17:04:05;99187.56;;;3.68;43.97
42887;BME280;29032;56.028;92.904;2022-10-23T17:09:09;99244.56;;;3.61;44.29
42887;BME280;29032;56.028;92.904;2022-10-23T17:14:13;99229.28;;;3.55;43.66
42887;BME280;29032;56.028;92.904;2022-10-23T17:19:17;99236.94;;;3.40;44.08
42887;BME280;29032;56.028;92.904;2022-10-23T17:24:22;99236.66;;;3.06;44.53
42887;BME280;29032;56.028;92.904;2022-10-23T17:29:24;99277.91;;;3.06;44.82
42887;BME280;29032;56.028;92.904;2022-10-23T17:34:26;99314.28;;;3.16;45.09
42887;BME280;29032;56.028;92.904;2022-10-23T17:39:30;99341.03;;;3.15;44.07
42887;BME280;29032;56.028;92.904;2022-10-23T17:44:32;99365.94;;;3.06;44.27
42887;BME280;29032;56.028;92.904;2022-10-23T17:49:34;99393.81;;;2.73;44.70
42887;BME280;29032;56.028;92.904;2022-10-23T17:54:38;99399.38;;;2.78;44.67
42887;BME280;29032;56.028;92.904;2022-10-23T17:59:40;99412.41;;;2.84;44.44
42887;BME280;29032;56.028;92.904;2022-10-23T18:04:42;99419.72;;;3.07;44.68
42887;BME280;29032;56.028;92.904;2022-10-23T18:09:46;99449.25;;;3.32;44.14
42887;BME280;29032;56.028;92.904;2022-10-23T18:14:48;99460.13;;;3.42;44.08
42887;BME280;29032;56.028;92.904;2022-10-23T18:19:51;99485.56;;;3.37;43.80
42887;BME280;29032;56.028;92.904;2022-10-23T18:24:54;99508.50;;;3.28;44.30
42887;BME280;29032;56.028;92.904;2022-10-23T18:29:56;99534.97;;;3.25;44.45
42887;BME280;29032;56.028;92.904;2022-10-23T18:34:59;99560.28;;;3.29;44.66
42887;BME280;29032;56.028;92.904;2022-10-23T18:40:02;99562.53;;;3.11;45.38
42887;BME280;29032;56.028;92.904;2022-10-23T18:45:06;99569.88;;;2.99;46.03
42887;BME280;29032;56.028;92.904;2022-10-23T18:50:08;99588.47;;;2.89;45.89
42887;BME280;29032;56.028;92.904;2022-10-23T18:55:12;99620.34;;;2.96;45.43
42887;BME280;29032;56.028;92.904;2022-10-23T19:00:15;99635.69;;;2.88;45.84
42887;BME280;29032;56.028;92.904;2022-10-23T19:05:17;99654.94;;;2.88;45.82
42887;BME280;29032;56.028;92.904;2022-10-23T19:10:22;99672.19;;;2.88;44.92
42887;BME280;29032;56.028;92.904;2022-10-23T19:15:26;99690.22;;;2.74;44.81
42887;BME280;29032;56.028;92.904;2022-10-23T19:20:29;99703.09;;;2.68;44.44
42887;BME280;29032;56.028;92.904;2022-10-23T19:25:33;99720.63;;;2.56;44.11
42887;BME280;29032;56.028;92.904;2022-10-23T19:30:36;99748.28;;;2.38;43.97
42887;BME280;29032;56.028;92.904;2022-10-23T19:35:38;99763.91;;;2.32;44.32
42887;BME280;29032;56.028;92.904;2022-10-23T19:40:42;99768.16;;;2.33;44.01
42887;BME280;29032;56.028;92.904;2022-10-23T19:45:44;99777.44;;;2.35;43.67
42887;BME280;29032;56.028;92.904;2022-10-23T19:50:46;99782.19;;;2.35;43.75
42887;BME280;29032;56.028;92.904;2022-10-23T19:55:49;99803.81;;;2.42;43.96
42887;BME280;29032;56.028;92.904;2022-10-23T20:00:52;99811.84;;;2.31;47.01
42887;BME280;29032;56.028;92.904;2022-10-23T20:05:54;99823.41;;;2.11;48.60
42887;BME280;29032;56.028;92.904;2022-10-23T20:10:57;99843.22;;;2.15;48.79
42887;BME280;29032;56.028;92.904;2022-10-23T20:15:59;99847.00;;;2.17;49.28
42887;BME280;29032;56.028;92.904;2022-10-23T20:21:01;99864.41;;;2.14;49.49
42887;BME280;29032;56.028;92.904;2022-10-23T20:26:06;99874.94;;;2.16;49.66
42887;BME280;29032;56.028;92.904;2022-10-23T20:31:09;99894.97;;;2.07;49.23
42887;BME280;29032;56.028;92.904;2022-10-23T20:36:23;99896.78;;;2.10;48.46
42887;BME280;29032;56.028;92.904;2022-10-23T20:41:27;99908.06;;;2.12;48.47
42887;BME280;29032;56.028;92.904;2022-10-23T20:46:29;99894.81;;;2.11;47.90
42887;BME280;29032;56.028;92.904;2022-10-23T20:51:31;99895.28;;;2.09;47.67
42887;BME280;29032;56.028;92.904;2022-10-23T20:56:37;99916.09;;;2.25;47.33
42887;BME280;29032;56.028;92.904;2022-10-23T21:01:40;99926.00;;;2.32;47.10
42887;BME280;29032;56.028;92.904;2022-10-23T21:06:42;99947.63;;;2.39;47.25
42887;BME280;29032;56.028;92.904;2022-10-23T21:11:46;99955.69;;;2.42;46.64
42887;BME280;29032;56.028;92.904;2022-10-23T21:16:48;99966.25;;;2.44;46.88
42887;BME280;29032;56.028;92.904;2022-10-23T21:21:50;99962.13;;;2.39;47.21
42887;BME280;29032;56.028;92.904;2022-10-23T21:26:54;99968.34;;;2.49;47.20
42887;BME280;29032;56.028;92.904;2022-10-23T21:31:58;99983.03;;;2.46;47.48
42887;BME280;29032;56.028;92.904;2022-10-23T21:37:00;99999.56;;;2.37;48.32
42887;BME280;29032;56.028;92.904;2022-10-23T21:42:04;100006.91;;;2.31;48.78
42887;BME280;29032;56.028;92.904;2022-10-23T21:47:06;100017.56;;;2.38;49.14
42887;BME280;29032;56.028;92.904;2022-10-23T21:52:08;100034.91;;;2.53;48.54
42887;BME280;29032;56.028;92.904;2022-10-23T21:57:13;100033.03;;;2.59;48.44
42887;BME280;29032;56.028;92.904;2022-10-23T22:02:15;100040.66;;;2.64;48.64
42887;BME280;29032;56.028;92.904;2022-10-23T22:07:17;100060.00;;;2.70;47.74
42887;BME280;29032;56.028;92.904;2022-10-23T22:12:21;100052.25;;;2.68;48.36
42887;BME280;29032;56.028;92.904;2022-10-23T22:17:23;100059.91;;;2.64;48.68
42887;BME280;29032;56.028;92.904;2022-10-23T22:22:25;100070.59;;;2.62;48.44
42887;BME280;29032;56.028;92.904;2022-10-23T22:27:28;100068.22;;;2.46;48.38
42887;BME280;29032;56.028;92.904;2022-10-23T22:32:30;100078.91;;;2.35;47.95
42887;BME280;29032;56.028;92.904;2022-10-23T22:37:33;100096.16;;;2.44;47.78
42887;BME280;29032;56.028;92.904;2022-10-23T22:42:36;100088.16;;;2.56;47.96
42887;BME280;29032;56.028;92.904;2022-10-23T22:47:38;100107.09;;;2.63;47.55
42887;BME280;29032;56.028;92.904;2022-10-23T22:52:40;100115.22;;;2.48;49.93
42887;BME280;29032;56.028;92.904;2022-10-23T22:57:44;100128.38;;;2.35;50.17
42887;BME280;29032;56.028;92.904;2022-10-23T23:02:46;100135.41;;;2.27;50.00
42887;BME280;29032;56.028;92.904;2022-10-23T23:07:48;100142.59;;;2.33;48.46
42887;BME280;29032;56.028;92.904;2022-10-23T23:12:51;100144.69;;;2.47;47.09
42887;BME280;29032;56.028;92.904;2022-10-23T23:17:53;100157.34;;;2.54;46.57
42887;BME280;29032;56.028;92.904;2022-10-23T23:22:56;100171.13;;;2.45;47.76
42887;BME280;29032;56.028;92.904;2022-10-23T23:27:59;100166.53;;;2.42;48.30
42887;BME280;29032;56.028;92.904;2022-10-23T23:33:01;100176.59;;;2.54;47.38
42887;BME280;29032;56.028;92.904;2022-10-23T23:38:03;100181.47;;;2.59;47.02
42887;BME280;29032;56.028;92.904;2022-10-23T23:43:07;100194.91;;;2.66;46.98
42887;BME280;29032;56.028;92.904;2022-10-23T23:48:09;100206.81;;;2.72;45.98
42887;BME280;29032;56.028;92.904;2022-10-23T23:53:11;100208.31;;;2.73;45.62
42887;BME280;29032;56.028;92.904;2022-10-23T23:58:15;100211.22;;;2.79;45.50
